Terminal Aerodrome Forecast
Issued by NWS Cheyenne, WY

Home | Current Version | Previous Version | Text Only | Print | Product List | Glossary On
Versions: 1 2 3 4 5 6 7 8 9 10 11 12 13 14 15 16 17 18 19 20 21 22 23 24 25 26 27 28 29 30 31 32 33 34 35 36 37 38
000
FTUS45 KCYS 191700
TAFCYS
TAF
KCYS 191721Z 1918/2018 04008KT P6SM BKN110
     FM192100 13010KT P6SM VCSH BKN060
     FM200100 18010KT P6SM SCT100
     FM200700 27010KT P6SM SCT200=

USA.gov is the U.S. government's official web portal to all federal, state and local government web resources and services.